Time;durP1;ratioP1;P1;durP2;ratioP2;P2;SDS_P1;SDS_P2;PMS_P1;PMS_P2;Temp;Humidity;BMP_temperature;BMP_pressure;BME280_temperature;BME280_humidity;BME280_pressure;Samples;Min_cycle;Max_cycle;Signal;HPM_P1;HPM_P2
2022/09/23 00:02:22;;;;;;;;;;;11.10;99.90;;;;;;5037960;28;19969;-63
2022/09/23 00:04:49;;;;;;;;;;;11.10;99.90;;;;;;5041299;28;20081;-63
2022/09/23 00:07:17;;;;;;;;;;;11.00;99.90;;;;;;5038503;28;20436;-63
2022/09/23 00:09:46;;;;;;;;;;;11.00;99.90;;;;;;5036302;28;19970;-64
2022/09/23 00:12:14;;;;;;;;;;;11.00;99.90;;;;;;5039935;28;19985;-64
2022/09/23 00:14:41;;;;;;;;;;;11.10;99.90;;;;;;5038315;28;19963;-64
2022/09/23 00:17:09;;;;;;;;;;;11.20;99.90;;;;;;5036503;28;19970;-64
2022/09/23 00:19:38;;;;;;;;;;;11.30;99.90;;;;;;5040727;28;20316;-64
2022/09/23 00:22:06;;;;;;;;;;;11.40;99.90;;;;;;5052676;28;19973;-64
2022/09/23 00:24:33;;;;;;;;;;;11.60;99.90;;;;;;5045557;28;19969;-64
2022/09/23 00:27:02;;;;;;;;;;;11.60;99.90;;;;;;5053644;28;19967;-64
2022/09/23 00:29:30;;;;;;;;;;;11.60;99.90;;;;;;5039393;28;19963;-65
2022/09/23 00:31:58;;;;;;;;;;;11.60;99.90;;;;;;5049772;28;19967;-64
2022/09/23 00:34:26;;;;;;;;;;;11.40;99.90;;;;;;5040712;28;19962;-64
2022/09/23 00:36:53;;;;;;;;;;;11.20;99.90;;;;;;5039576;28;19967;-64
2022/09/23 00:39:21;;;;;;;;;;;11.00;99.90;;;;;;5045902;28;19990;-64
2022/09/23 00:41:49;;;;;;;;;;;10.90;99.90;;;;;;5045247;28;20354;-64
2022/09/23 00:44:35;;;;;;;;;;;11.00;99.90;;;;;;5043787;28;19962;-65
2022/09/23 00:47:04;;;;;;;;;;;10.90;99.90;;;;;;5039383;28;19963;-64
2022/09/23 00:49:32;;;;;;;;;;;10.90;99.90;;;;;;5047965;28;19967;-65
2022/09/23 00:52:02;;;;;;;;;;;10.70;99.90;;;;;;5041385;28;19962;-65
2022/09/23 00:54:30;;;;;;;;;;;10.60;99.90;;;;;;5059135;28;20354;-64
2022/09/23 00:56:58;;;;;;;;;;;10.50;99.90;;;;;;5038217;28;19967;-64
2022/09/23 00:59:27;;;;;;;;;;;10.50;99.90;;;;;;5054974;28;19963;-64
2022/09/23 01:01:57;;;;;;;;;;;10.60;99.90;;;;;;5039429;28;19962;-65
2022/09/23 01:04:26;;;;;;;;;;;10.60;99.90;;;;;;5040882;28;19990;-65
2022/09/23 01:06:54;;;;;;;;;;;10.60;99.90;;;;;;5050831;28;19969;-65
2022/09/23 01:09:22;;;;;;;;;;;10.50;99.90;;;;;;5045438;28;19963;-65
2022/09/23 01:11:52;;;;;;;;;;;10.40;99.90;;;;;;5040404;28;19965;-64
2022/09/23 01:14:30;;;;;;;;;;;10.40;99.90;;;;;;5041738;28;19974;-65
2022/09/23 01:17:01;;;;;;;;;;;10.40;99.90;;;;;;5041279;28;19962;-65
2022/09/23 01:19:46;;;;;;;;;;;10.40;99.90;;;;;;5039741;28;20432;-64
2022/09/23 01:22:17;;;;;;;;;;;10.50;99.90;;;;;;5044252;28;19959;-64
2022/09/23 01:24:46;;;;;;;;;;;10.70;99.90;;;;;;5035476;28;20462;-64
2022/09/23 01:27:19;;;;;;;;;;;10.80;99.90;;;;;;5038992;28;19963;-64
2022/09/23 01:30:05;;;;;;;;;;;11.00;99.90;;;;;;5042158;28;19971;-64
2022/09/23 01:32:48;;;;;;;;;;;11.10;99.90;;;;;;5037265;28;19963;-65
2022/09/23 01:35:20;;;;;;;;;;;11.00;99.90;;;;;;5042302;28;19977;-65
2022/09/23 01:37:50;;;;;;;;;;;11.00;99.90;;;;;;5045410;28;19969;-64
2022/09/23 01:40:20;;;;;;;;;;;11.00;99.90;;;;;;5039821;28;19969;-64
2022/09/23 01:42:51;;;;;;;;;;;11.10;99.90;;;;;;5040221;28;19963;-64
2022/09/23 01:45:22;;;;;;;;;;;11.00;99.90;;;;;;5047534;28;19966;-65
2022/09/23 01:47:54;;;;;;;;;;;11.10;99.90;;;;;;5047274;28;19963;-65
2022/09/23 01:53:12;;;;;;;;;;;11.00;99.90;;;;;;5045061;28;20408;-68
2022/09/23 01:55:43;;;;;;;;;;;11.00;99.90;;;;;;5034555;28;19966;-65
2022/09/23 01:58:14;;;;;;;;;;;10.80;99.90;;;;;;5037330;28;20346;-64
2022/09/23 02:00:46;;;;;;;;;;;10.80;99.90;;;;;;5034472;28;19967;-65
2022/09/23 02:03:17;;;;;;;;;;;10.90;99.90;;;;;;5041933;28;19959;-66
2022/09/23 02:05:47;;;;;;;;;;;10.90;99.90;;;;;;5039639;28;19963;-65
2022/09/23 02:08:16;;;;;;;;;;;10.90;99.90;;;;;;5043168;28;19963;-65
2022/09/23 02:10:44;;;;;;;;;;;10.80;99.90;;;;;;5041535;28;19976;-64
2022/09/23 02:13:14;;;;;;;;;;;10.80;99.90;;;;;;5040727;28;19959;-64
2022/09/23 02:15:44;;;;;;;;;;;10.90;99.90;;;;;;5052376;28;19973;-64
2022/09/23 02:18:13;;;;;;;;;;;10.90;99.90;;;;;;5039730;28;20345;-64
2022/09/23 02:20:43;;;;;;;;;;;10.90;99.90;;;;;;5059371;28;19958;-65
2022/09/23 02:23:12;;;;;;;;;;;10.90;99.90;;;;;;5033778;28;19963;-64
2022/09/23 02:25:42;;;;;;;;;;;10.90;99.90;;;;;;5035941;28;19962;-64
2022/09/23 02:28:14;;;;;;;;;;;10.90;99.90;;;;;;5039700;28;20349;-64
2022/09/23 02:30:46;;;;;;;;;;;11.00;99.90;;;;;;5040241;28;19966;-65
2022/09/23 02:33:20;;;;;;;;;;;11.00;99.90;;;;;;5041713;28;19965;-63
2022/09/23 02:35:54;;;;;;;;;;;11.00;99.90;;;;;;5036443;28;22302;-64
2022/09/23 02:38:25;;;;;;;;;;;11.10;99.90;;;;;;5041862;28;20350;-64
2022/09/23 02:40:53;;;;;;;;;;;11.10;99.90;;;;;;5035383;28;20073;-65
2022/09/23 02:43:26;;;;;;;;;;;10.80;99.90;;;;;;5047367;28;19963;-64
2022/09/23 02:45:54;;;;;;;;;;;10.90;99.90;;;;;;5041856;28;20741;-64
2022/09/23 02:48:25;;;;;;;;;;;10.90;99.90;;;;;;5042025;28;20677;-65
2022/09/23 02:50:54;;;;;;;;;;;10.60;99.90;;;;;;5042471;28;19977;-66
2022/09/23 02:53:22;;;;;;;;;;;10.50;99.90;;;;;;5042521;28;19963;-65
2022/09/23 02:55:50;;;;;;;;;;;10.50;99.90;;;;;;5049514;28;19967;-65
2022/09/23 02:58:18;;;;;;;;;;;10.50;99.90;;;;;;5043905;28;19971;-65
2022/09/23 03:00:51;;;;;;;;;;;10.60;99.90;;;;;;5046672;28;19967;-65
2022/09/23 03:03:27;;;;;;;;;;;10.50;99.90;;;;;;5040509;28;19970;-65
2022/09/23 03:05:57;;;;;;;;;;;10.30;99.90;;;;;;5044579;28;20348;-65
2022/09/23 03:08:35;;;;;;;;;;;10.20;99.90;;;;;;5038744;28;19967;-65
2022/09/23 03:11:05;;;;;;;;;;;10.30;99.90;;;;;;5040384;28;20354;-65
2022/09/23 03:13:38;;;;;;;;;;;10.20;99.90;;;;;;5044342;28;20428;-65
2022/09/23 03:16:10;;;;;;;;;;;10.10;99.90;;;;;;5036287;28;20479;-65
2022/09/23 03:18:40;;;;;;;;;;;10.10;99.90;;;;;;5049474;28;20008;-65
2022/09/23 03:21:11;;;;;;;;;;;10.00;99.90;;;;;;5038511;28;19967;-64
2022/09/23 03:23:40;;;;;;;;;;;10.30;99.90;;;;;;5043538;28;20456;-64
2022/09/23 03:26:11;;;;;;;;;;;10.30;99.90;;;;;;5035176;28;20017;-64
2022/09/23 03:28:40;;;;;;;;;;;10.30;99.90;;;;;;5047163;28;19985;-66
2022/09/23 03:31:08;;;;;;;;;;;10.10;99.90;;;;;;5040586;28;20350;-66
2022/09/23 03:33:38;;;;;;;;;;;10.00;99.90;;;;;;5049561;28;20349;-66
2022/09/23 03:38:56;;;;;;;;;;;9.90;99.90;;;;;;5040838;28;19969;-66
2022/09/23 03:41:28;;;;;;;;;;;10.10;99.90;;;;;;5044199;28;19962;-65
2022/09/23 03:43:57;;;;;;;;;;;10.00;99.90;;;;;;5038720;28;19974;-65
2022/09/23 03:46:26;;;;;;;;;;;10.00;99.90;;;;;;5056142;28;19977;-66
2022/09/23 03:48:57;;;;;;;;;;;10.10;99.90;;;;;;5040723;28;20050;-65
2022/09/23 03:51:24;;;;;;;;;;;10.20;99.90;;;;;;5049832;28;20062;-64
2022/09/23 03:53:52;;;;;;;;;;;10.10;99.90;;;;;;5043113;28;19967;-65
2022/09/23 03:56:21;;;;;;;;;;;10.10;99.90;;;;;;5048875;28;20002;-64
2022/09/23 03:58:49;;;;;;;;;;;10.10;99.90;;;;;;5038339;28;19989;-64
2022/09/23 04:01:17;;;;;;;;;;;10.30;99.90;;;;;;5041501;28;20338;-64
2022/09/23 04:03:44;;;;;;;;;;;10.20;99.90;;;;;;5043246;28;20010;-64
2022/09/23 04:06:12;;;;;;;;;;;10.10;99.90;;;;;;5039061;28;19967;-65
2022/09/23 04:08:40;;;;;;;;;;;10.10;99.90;;;;;;5036843;28;19969;-64
2022/09/23 04:11:08;;;;;;;;;;;10.10;99.90;;;;;;5041406;28;19974;-64
2022/09/23 04:13:37;;;;;;;;;;;10.10;99.90;;;;;;5043852;28;19962;-63
2022/09/23 04:16:05;;;;;;;;;;;10.20;99.90;;;;;;5031783;28;19967;-64
2022/09/23 04:18:34;;;;;;;;;;;10.20;99.90;;;;;;5039516;28;19969;-64
2022/09/23 04:21:01;;;;;;;;;;;10.10;99.90;;;;;;5039912;28;19973;-64
2022/09/23 04:23:29;;;;;;;;;;;10.00;99.90;;;;;;5038688;28;19974;-64
2022/09/23 04:25:57;;;;;;;;;;;9.80;99.90;;;;;;5034902;28;19966;-64
2022/09/23 04:28:25;;;;;;;;;;;9.80;99.90;;;;;;5039990;28;19972;-64
2022/09/23 04:30:56;;;;;;;;;;;9.70;99.90;;;;;;5040226;28;20010;-64
2022/09/23 04:33:24;;;;;;;;;;;9.60;99.90;;;;;;5040198;28;20467;-64
2022/09/23 04:35:52;;;;;;;;;;;9.50;99.90;;;;;;5037060;28;19971;-64
2022/09/23 04:38:20;;;;;;;;;;;9.50;99.90;;;;;;5044174;28;19981;-64
2022/09/23 04:40:48;;;;;;;;;;;9.40;99.90;;;;;;5034717;28;19979;-64
2022/09/23 04:43:16;;;;;;;;;;;9.40;99.90;;;;;;5043302;28;20061;-63
2022/09/23 04:45:44;;;;;;;;;;;9.30;99.90;;;;;;5041678;28;20458;-64
2022/09/23 04:48:13;;;;;;;;;;;9.20;99.90;;;;;;5044167;28;20667;-64
2022/09/23 04:50:41;;;;;;;;;;;9.20;99.90;;;;;;5038687;28;19971;-64
2022/09/23 04:53:09;;;;;;;;;;;9.20;99.90;;;;;;5042143;28;19967;-64
2022/09/23 04:55:36;;;;;;;;;;;9.20;99.90;;;;;;5039803;28;20045;-64
2022/09/23 04:58:04;;;;;;;;;;;9.20;99.90;;;;;;5043894;28;19970;-64
2022/09/23 05:00:32;;;;;;;;;;;9.20;99.90;;;;;;5042976;28;20364;-65
2022/09/23 05:03:00;;;;;;;;;;;9.20;99.90;;;;;;5038338;28;20058;-64
2022/09/23 05:05:29;;;;;;;;;;;9.20;99.90;;;;;;5042624;28;20436;-64
2022/09/23 05:07:57;;;;;;;;;;;9.10;99.90;;;;;;5043512;28;20061;-65
2022/09/23 05:10:25;;;;;;;;;;;9.30;99.90;;;;;;5043101;28;19975;-66
2022/09/23 05:12:52;;;;;;;;;;;9.30;99.90;;;;;;5039816;28;19971;-65
2022/09/23 05:15:24;;;;;;;;;;;9.20;99.90;;;;;;5043021;28;20024;-66
2022/09/23 05:17:51;;;;;;;;;;;9.30;99.90;;;;;;5039595;28;19979;-66
2022/09/23 05:20:19;;;;;;;;;;;9.20;99.90;;;;;;5042013;28;19975;-65
2022/09/23 05:22:48;;;;;;;;;;;9.30;99.90;;;;;;5039278;28;19975;-65
2022/09/23 05:25:16;;;;;;;;;;;9.20;99.90;;;;;;5041751;28;19967;-65
2022/09/23 05:27:43;;;;;;;;;;;9.30;99.90;;;;;;5041108;28;19977;-65
2022/09/23 05:30:11;;;;;;;;;;;9.30;99.90;;;;;;5040760;28;19967;-64
2022/09/23 05:32:39;;;;;;;;;;;9.40;99.90;;;;;;5038137;28;19978;-65
2022/09/23 05:35:07;;;;;;;;;;;9.40;99.90;;;;;;5055725;22;19982;-63
2022/09/23 05:37:37;;;;;;;;;;;9.40;99.90;;;;;;5035995;28;19971;-65
2022/09/23 05:40:06;;;;;;;;;;;9.40;99.90;;;;;;5037446;28;20058;-65
2022/09/23 05:42:34;;;;;;;;;;;9.50;99.90;;;;;;5032009;28;21276;-65
2022/09/23 05:45:02;;;;;;;;;;;9.50;99.90;;;;;;5031471;28;19967;-65
2022/09/23 05:47:30;;;;;;;;;;;9.60;99.90;;;;;;5023839;28;19967;-65
2022/09/23 05:49:58;;;;;;;;;;;9.60;99.90;;;;;;5018636;28;19981;-65
2022/09/23 05:52:27;;;;;;;;;;;9.60;99.90;;;;;;5020418;28;19971;-65
2022/09/23 05:54:55;;;;;;;;;;;9.70;99.90;;;;;;5019411;28;19977;-65
2022/09/23 05:57:24;;;;;;;;;;;9.70;99.90;;;;;;5024160;28;19982;-65
2022/09/23 05:59:52;;;;;;;;;;;9.80;99.90;;;;;;5018061;28;19971;-65
2022/09/23 06:02:19;;;;;;;;;;;9.80;99.90;;;;;;5022550;28;20412;-65
2022/09/23 06:04:47;;;;;;;;;;;9.80;99.90;;;;;;5019444;28;21168;-65
2022/09/23 06:07:15;;;;;;;;;;;9.90;99.90;;;;;;5017380;28;20537;-65
2022/09/23 06:09:42;;;;;;;;;;;9.90;99.90;;;;;;5011276;28;21254;-65
2022/09/23 06:12:13;;;;;;;;;;;10.00;99.90;;;;;;5011839;28;19978;-65
2022/09/23 06:14:42;;;;;;;;;;;10.10;99.90;;;;;;5012586;28;19979;-65
2022/09/23 06:17:09;;;;;;;;;;;10.10;99.90;;;;;;5012810;28;19971;-65
2022/09/23 06:19:37;;;;;;;;;;;10.20;99.90;;;;;;5012231;28;19982;-65
2022/09/23 06:22:05;;;;;;;;;;;10.20;99.90;;;;;;5012433;28;19972;-65
2022/09/23 06:24:32;;;;;;;;;;;10.30;99.90;;;;;;5012425;28;19963;-65
2022/09/23 06:27:01;;;;;;;;;;;10.30;99.90;;;;;;5012955;28;19967;-65
2022/09/23 06:29:29;;;;;;;;;;;10.30;99.90;;;;;;5018177;28;19967;-66
2022/09/23 06:31:59;;;;;;;;;;;10.30;99.90;;;;;;5020036;28;19965;-65
2022/09/23 06:34:26;;;;;;;;;;;10.30;99.90;;;;;;5020604;28;19990;-65
2022/09/23 06:36:54;;;;;;;;;;;10.30;99.90;;;;;;5019935;28;19971;-64
2022/09/23 06:39:22;;;;;;;;;;;10.30;99.90;;;;;;5021149;28;19971;-65
2022/09/23 06:41:50;;;;;;;;;;;10.30;99.90;;;;;;5021105;28;20555;-65
2022/09/23 06:44:18;;;;;;;;;;;10.30;99.90;;;;;;5018981;28;19982;-65
2022/09/23 06:46:45;;;;;;;;;;;10.40;99.90;;;;;;5020088;28;19975;-66
2022/09/23 06:49:15;;;;;;;;;;;10.40;99.90;;;;;;5018792;28;20322;-66
2022/09/23 06:51:42;;;;;;;;;;;10.40;99.90;;;;;;5019663;28;21735;-66
2022/09/23 06:54:10;;;;;;;;;;;10.40;99.90;;;;;;5016610;28;20636;-66
2022/09/23 06:56:38;;;;;;;;;;;10.40;99.90;;;;;;5011452;28;19971;-65
2022/09/23 06:59:07;;;;;;;;;;;10.40;99.90;;;;;;5011592;28;19967;-64
2022/09/23 07:01:35;;;;;;;;;;;10.50;99.90;;;;;;5010841;28;21043;-64
2022/09/23 07:04:03;;;;;;;;;;;10.50;99.90;;;;;;5008896;28;20432;-64
2022/09/23 07:06:32;;;;;;;;;;;10.50;99.90;;;;;;5011198;28;19975;-65
2022/09/23 07:09:00;;;;;;;;;;;10.60;99.90;;;;;;5012279;28;20346;-65
2022/09/23 07:11:28;;;;;;;;;;;10.70;99.90;;;;;;5015276;28;19963;-65
2022/09/23 07:13:56;;;;;;;;;;;10.80;99.90;;;;;;5016586;28;19972;-65
2022/09/23 07:16:23;;;;;;;;;;;10.80;99.90;;;;;;5009075;28;20459;-65
2022/09/23 07:18:52;;;;;;;;;;;10.90;99.90;;;;;;5018650;28;19980;-65
2022/09/23 07:21:20;;;;;;;;;;;10.90;99.90;;;;;;5016140;28;19979;-65
2022/09/23 07:23:50;;;;;;;;;;;11.00;99.90;;;;;;5013155;28;19977;-65
2022/09/23 07:26:19;;;;;;;;;;;11.00;99.90;;;;;;5012109;28;19972;-64
2022/09/23 07:28:46;;;;;;;;;;;11.00;99.90;;;;;;5014557;28;19975;-65
2022/09/23 07:31:16;;;;;;;;;;;11.10;99.90;;;;;;5020271;28;19978;-65
2022/09/23 07:33:55;;;;;;;;;;;11.10;99.90;;;;;;5018862;28;19975;-65
2022/09/23 07:36:23;;;;;;;;;;;11.10;99.90;;;;;;5022151;28;20003;-65
2022/09/23 07:38:54;;;;;;;;;;;11.20;99.90;;;;;;5020185;28;19994;-65
2022/09/23 07:41:22;;;;;;;;;;;11.20;99.90;;;;;;5020377;28;19978;-65
2022/09/23 07:43:51;;;;;;;;;;;11.40;99.90;;;;;;5017001;28;20475;-65
2022/09/23 07:46:19;;;;;;;;;;;11.40;99.90;;;;;;5018454;28;20009;-65
2022/09/23 07:48:46;;;;;;;;;;;11.60;99.90;;;;;;5020209;28;19975;-65
2022/09/23 07:51:16;;;;;;;;;;;11.80;99.90;;;;;;5021322;28;19978;-65
2022/09/23 07:53:46;;;;;;;;;;;11.90;99.90;;;;;;5018366;28;20846;-65
2022/09/23 07:56:16;;;;;;;;;;;12.00;99.90;;;;;;5021832;28;19979;-65
2022/09/23 07:58:43;;;;;;;;;;;12.10;99.90;;;;;;5019407;28;19972;-65
2022/09/23 08:01:12;;;;;;;;;;;12.30;99.90;;;;;;5013816;28;19967;-65
2022/09/23 08:03:40;;;;;;;;;;;12.20;99.90;;;;;;5017644;28;19974;-65
2022/09/23 08:06:09;;;;;;;;;;;12.30;99.90;;;;;;5018261;28;19971;-65
2022/09/23 08:08:38;;;;;;;;;;;12.40;99.90;;;;;;5019952;28;20013;-65
2022/09/23 08:11:06;;;;;;;;;;;12.60;99.90;;;;;;5019517;28;19971;-65
2022/09/23 08:13:36;;;;;;;;;;;12.80;99.90;;;;;;5021224;28;19967;-65
2022/09/23 08:16:04;;;;;;;;;;;13.10;99.90;;;;;;5021441;28;19967;-65
2022/09/23 08:18:32;;;;;;;;;;;13.20;99.90;;;;;;5024071;28;19978;-65
2022/09/23 08:21:00;;;;;;;;;;;13.40;99.90;;;;;;5021981;28;19971;-65
2022/09/23 08:23:32;;;;;;;;;;;13.50;99.90;;;;;;5016207;28;20355;-65
2022/09/23 08:26:01;;;;;;;;;;;13.70;99.90;;;;;;5014022;28;19963;-65
2022/09/23 08:28:29;;;;;;;;;;;13.80;99.90;;;;;;5014273;28;20006;-65
2022/09/23 08:30:58;;;;;;;;;;;14.10;99.90;;;;;;5018890;28;19963;-63
2022/09/23 08:33:26;;;;;;;;;;;14.20;99.90;;;;;;5022515;28;19973;-63
2022/09/23 08:35:58;;;;;;;;;;;14.50;99.90;;;;;;5022626;28;20683;-63
2022/09/23 08:38:26;;;;;;;;;;;14.80;99.90;;;;;;5023654;28;19971;-63
2022/09/23 08:40:55;;;;;;;;;;;14.70;99.90;;;;;;5020951;28;19967;-63
2022/09/23 08:43:26;;;;;;;;;;;14.80;99.90;;;;;;5021325;28;19968;-63
2022/09/23 08:45:54;;;;;;;;;;;15.00;99.90;;;;;;5023297;28;19971;-63
2022/09/23 08:48:27;;;;;;;;;;;15.20;99.90;;;;;;5022437;28;19971;-63
2022/09/23 08:50:58;;;;;;;;;;;15.30;99.90;;;;;;5020098;28;19978;-64
2022/09/23 08:53:27;;;;;;;;;;;15.40;99.90;;;;;;5021439;28;19970;-65
2022/09/23 08:55:56;;;;;;;;;;;15.80;99.90;;;;;;5021014;28;19978;-63
2022/09/23 08:58:29;;;;;;;;;;;16.30;99.90;;;;;;5022927;28;19975;-63
2022/09/23 09:01:02;;;;;;;;;;;16.50;99.90;;;;;;5022309;28;19974;-63
2022/09/23 09:03:33;;;;;;;;;;;16.80;99.90;;;;;;5017404;28;19963;-63
2022/09/23 09:06:02;;;;;;;;;;;16.80;99.90;;;;;;5021229;28;19971;-63
2022/09/23 09:08:32;;;;;;;;;;;17.10;99.90;;;;;;5023597;28;19967;-63
2022/09/23 09:11:00;;;;;;;;;;;17.50;99.90;;;;;;5022275;28;20344;-63
2022/09/23 09:13:30;;;;;;;;;;;17.50;99.90;;;;;;5020366;28;20309;-63
2022/09/23 09:16:10;;;;;;;;;;;17.70;99.90;;;;;;5022531;28;19968;-63
2022/09/23 09:18:44;;;;;;;;;;;17.90;99.90;;;;;;5021050;28;19978;-63
2022/09/23 09:21:12;;;;;;;;;;;18.00;99.90;;;;;;5023924;28;20660;-63
2022/09/23 09:23:43;;;;;;;;;;;18.20;99.90;;;;;;5020814;28;19977;-63
2022/09/23 09:26:13;;;;;;;;;;;18.10;99.90;;;;;;5017442;28;19971;-63
2022/09/23 09:28:42;;;;;;;;;;;18.20;99.90;;;;;;5024472;28;19975;-63
2022/09/23 09:31:20;;;;;;;;;;;18.20;99.90;;;;;;5020199;28;20089;-63
2022/09/23 09:33:56;;;;;;;;;;;18.00;99.90;;;;;;5017928;28;19975;-63
2022/09/23 09:36:29;;;;;;;;;;;18.10;99.90;;;;;;5024091;28;19975;-63
2022/09/23 09:38:58;;;;;;;;;;;18.60;99.90;;;;;;5019869;28;19963;-63
2022/09/23 09:41:27;;;;;;;;;;;18.90;99.90;;;;;;5023589;28;20059;-63
2022/09/23 09:43:56;;;;;;;;;;;19.20;99.90;;;;;;5014387;28;19982;-63
2022/09/23 09:46:32;;;;;;;;;;;19.30;99.90;;;;;;5021115;28;20072;-63
2022/09/23 09:49:07;;;;;;;;;;;19.40;99.90;;;;;;5019061;28;20046;-63
2022/09/23 09:51:38;;;;;;;;;;;19.20;99.90;;;;;;5022169;28;20951;-63
2022/09/23 09:54:17;;;;;;;;;;;19.30;99.90;;;;;;5019108;28;20825;-63
2022/09/23 09:56:44;;;;;;;;;;;19.60;99.90;;;;;;5020429;28;19975;-63
2022/09/23 09:59:21;;;;;;;;;;;19.70;99.90;;;;;;5021847;28;19978;-62
2022/09/23 10:01:49;;;;;;;;;;;19.50;99.90;;;;;;5020093;28;19977;-63
2022/09/23 10:04:22;;;;;;;;;;;19.50;99.90;;;;;;5022081;28;20070;-63
2022/09/23 10:07:11;;;;;;;;;;;19.70;99.90;;;;;;5019095;28;20828;-63
2022/09/23 10:09:40;;;;;;;;;;;19.80;99.30;;;;;;5014488;28;19971;-63
2022/09/23 10:12:14;;;;;;;;;;;19.90;99.20;;;;;;5019911;28;19975;-63
2022/09/23 10:14:42;;;;;;;;;;;19.80;99.80;;;;;;5020179;28;20010;-63
2022/09/23 10:17:15;;;;;;;;;;;20.10;99.80;;;;;;5020947;28;19978;-63
2022/09/23 10:19:45;;;;;;;;;;;20.20;99.70;;;;;;5021591;28;19974;-63
2022/09/23 10:22:18;;;;;;;;;;;20.10;99.00;;;;;;5021063;28;19994;-63
2022/09/23 10:24:48;;;;;;;;;;;20.30;99.90;;;;;;5020782;28;19988;-63
2022/09/23 10:27:16;;;;;;;;;;;20.40;99.90;;;;;;5019192;28;19993;-63
2022/09/23 10:29:49;;;;;;;;;;;20.50;99.10;;;;;;5018682;28;19975;-63
2022/09/23 10:32:25;;;;;;;;;;;20.60;98.70;;;;;;5022890;28;19983;-63
2022/09/23 10:34:56;;;;;;;;;;;20.50;98.40;;;;;;5019423;28;19989;-63
2022/09/23 10:37:27;;;;;;;;;;;20.60;98.70;;;;;;5022431;28;19972;-63
2022/09/23 10:48:39;;;;;;;;;;;21.20;98.00;;;;;;4958252;28;20008;-63
2022/09/23 10:51:13;;;;;;;;;;;21.20;97.70;;;;;;4994758;28;19971;-63
2022/09/23 10:53:48;;;;;;;;;;;21.10;97.50;;;;;;5019840;28;19971;-63
2022/09/23 10:56:18;;;;;;;;;;;21.20;97.40;;;;;;5016190;28;20445;-62
2022/09/23 10:58:54;;;;;;;;;;;21.30;97.00;;;;;;5015876;28;19967;-63
2022/09/23 11:01:27;;;;;;;;;;;21.50;98.10;;;;;;5015617;28;19963;-64
2022/09/23 11:04:09;;;;;;;;;;;21.60;96.90;;;;;;5020193;28;19967;-63
2022/09/23 11:06:44;;;;;;;;;;;21.50;96.50;;;;;;5011692;28;20049;-63
2022/09/23 11:09:19;;;;;;;;;;;21.50;96.70;;;;;;5012781;28;19976;-63
2022/09/23 11:11:53;;;;;;;;;;;21.50;96.50;;;;;;5028256;28;19994;-63
2022/09/23 11:14:27;;;;;;;;;;;21.50;96.60;;;;;;5030450;28;20661;-63
2022/09/23 11:17:04;;;;;;;;;;;21.50;96.70;;;;;;5027147;28;19978;-63
2022/09/23 11:19:56;;;;;;;;;;;21.50;97.20;;;;;;5027406;28;20005;-63
2022/09/23 11:22:36;;;;;;;;;;;21.50;96.40;;;;;;5005161;28;19973;-63
2022/09/23 11:25:13;;;;;;;;;;;21.40;96.40;;;;;;5024387;28;19974;-63
2022/09/23 11:27:46;;;;;;;;;;;21.40;97.90;;;;;;5014980;28;20450;-63
2022/09/23 11:30:16;;;;;;;;;;;21.70;97.20;;;;;;5027163;28;19974;-63
2022/09/23 11:33:01;;;;;;;;;;;21.70;96.40;;;;;;5011929;28;19974;-63
2022/09/23 11:35:31;;;;;;;;;;;21.50;96.90;;;;;;5042908;22;20109;-66
2022/09/23 11:38:04;;;;;;;;;;;22.00;96.30;;;;;;5070679;28;19970;-66
2022/09/23 11:40:33;;;;;;;;;;;22.20;95.30;;;;;;5069840;28;20020;-65
2022/09/23 11:43:05;;;;;;;;;;;22.20;95.80;;;;;;5069351;28;20312;-59
2022/09/23 11:45:35;;;;;;;;;;;22.40;95.90;;;;;;5068308;28;19969;-63
2022/09/23 11:48:09;;;;;;;;;;;22.90;95.20;;;;;;5051178;28;20396;-61
2022/09/23 11:50:38;;;;;;;;;;;23.30;95.00;;;;;;5056029;28;20420;-63
2022/09/23 11:53:12;;;;;;;;;;;23.60;94.60;;;;;;5055499;28;19973;-63
2022/09/23 11:55:43;;;;;;;;;;;23.50;94.10;;;;;;5055039;28;19967;-63
2022/09/23 11:58:24;;;;;;;;;;;23.10;94.20;;;;;;5053660;28;19970;-63
2022/09/23 12:00:55;;;;;;;;;;;22.80;94.40;;;;;;5054610;28;19967;-62
2022/09/23 12:03:34;;;;;;;;;;;22.70;95.20;;;;;;5053552;28;19978;-64
2022/09/23 12:06:13;;;;;;;;;;;23.10;95.00;;;;;;5055112;28;20028;-63
2022/09/23 12:08:43;;;;;;;;;;;23.00;94.90;;;;;;5054280;28;19967;-63
2022/09/23 12:11:17;;;;;;;;;;;22.50;95.40;;;;;;5052909;28;20054;-64
2022/09/23 12:13:49;;;;;;;;;;;22.70;95.80;;;;;;5048717;28;19967;-64
2022/09/23 12:16:28;;;;;;;;;;;22.80;96.50;;;;;;5048277;28;20361;-64
2022/09/23 12:19:03;;;;;;;;;;;23.10;95.40;;;;;;5049880;28;20021;-64
2022/09/23 12:21:41;;;;;;;;;;;22.80;95.20;;;;;;5054733;28;19967;-64
2022/09/23 12:24:42;;;;;;;;;;;23.20;96.10;;;;;;5049825;28;20112;-64
2022/09/23 12:27:11;;;;;;;;;;;23.60;94.80;;;;;;5055044;28;19970;-64
2022/09/23 12:29:40;;;;;;;;;;;23.80;94.10;;;;;;5050860;28;19967;-64
2022/09/23 12:32:16;;;;;;;;;;;24.20;93.60;;;;;;5053141;28;20065;-64
2022/09/23 12:34:47;;;;;;;;;;;24.30;93.40;;;;;;5052598;28;19973;-62
2022/09/23 12:37:22;;;;;;;;;;;24.10;93.70;;;;;;5050881;28;19989;-64
2022/09/23 12:39:51;;;;;;;;;;;24.10;93.00;;;;;;5054322;28;19977;-64
2022/09/23 12:42:20;;;;;;;;;;;24.70;93.30;;;;;;5051966;28;20592;-65
2022/09/23 12:44:49;;;;;;;;;;;25.20;92.40;;;;;;5049643;28;19985;-66
2022/09/23 12:47:30;;;;;;;;;;;25.10;91.30;;;;;;5051775;28;20345;-64
2022/09/23 12:49:59;;;;;;;;;;;25.30;92.40;;;;;;5049200;28;20334;-64
2022/09/23 12:52:30;;;;;;;;;;;25.50;90.70;;;;;;5047495;28;19983;-63
2022/09/23 12:55:20;;;;;;;;;;;25.70;90.90;;;;;;5050172;28;19968;-62
2022/09/23 12:57:49;;;;;;;;;;;25.50;91.20;;;;;;5047038;28;19973;-64
2022/09/23 13:00:22;;;;;;;;;;;25.40;90.60;;;;;;5047595;28;20333;-62
2022/09/23 13:08:27;;;;;;;;;;;24.90;91.50;;;;;;5046257;28;19969;-62
2022/09/23 13:10:57;;;;;;;;;;;24.60;91.40;;;;;;5047261;28;19963;-64
2022/09/23 13:13:28;;;;;;;;;;;24.20;92.00;;;;;;5045015;28;19994;-65
2022/09/23 13:16:09;;;;;;;;;;;23.80;92.30;;;;;;5042697;28;19981;-64
2022/09/23 13:18:57;;;;;;;;;;;23.50;92.40;;;;;;5037185;28;20827;-66
2022/09/23 13:21:44;;;;;;;;;;;23.40;93.00;;;;;;5039654;28;19972;-63
2022/09/23 13:24:19;;;;;;;;;;;23.20;93.70;;;;;;5038685;28;20056;-64
2022/09/23 13:26:48;;;;;;;;;;;23.90;93.30;;;;;;5042162;28;20047;-64
2022/09/23 13:29:20;;;;;;;;;;;24.70;92.30;;;;;;5043967;28;19975;-63
2022/09/23 13:31:47;;;;;;;;;;;25.20;92.00;;;;;;5044021;28;19974;-63
2022/09/23 13:34:18;;;;;;;;;;;25.10;91.60;;;;;;5041784;28;19975;-63
2022/09/23 13:36:47;;;;;;;;;;;24.80;91.50;;;;;;5043543;28;19985;-64
2022/09/23 13:39:15;;;;;;;;;;;24.60;91.60;;;;;;5043899;28;20509;-63
2022/09/23 13:41:44;;;;;;;;;;;24.50;91.80;;;;;;5043364;28;19975;-64
2022/09/23 13:44:17;;;;;;;;;;;24.20;93.00;;;;;;5041290;28;19975;-64
2022/09/23 13:46:49;;;;;;;;;;;24.40;92.30;;;;;;5043477;28;19989;-64
2022/09/23 13:49:21;;;;;;;;;;;24.70;92.00;;;;;;5043973;28;20354;-63
2022/09/23 13:51:49;;;;;;;;;;;24.90;92.10;;;;;;5043421;28;20586;-64
2022/09/23 13:54:27;;;;;;;;;;;24.70;92.30;;;;;;5041723;28;19981;-64
2022/09/23 13:56:55;;;;;;;;;;;24.60;92.10;;;;;;5043761;28;21083;-64
2022/09/23 13:59:24;;;;;;;;;;;24.60;92.10;;;;;;5043581;28;20355;-66
2022/09/23 14:02:03;;;;;;;;;;;24.50;91.80;;;;;;5043748;28;20002;-64
2022/09/23 14:04:31;;;;;;;;;;;24.40;92.10;;;;;;5041956;28;19975;-64
2022/09/23 14:06:59;;;;;;;;;;;24.10;92.60;;;;;;5043609;28;19997;-64
2022/09/23 14:09:27;;;;;;;;;;;23.90;92.80;;;;;;5043437;28;19966;-63
2022/09/23 14:11:56;;;;;;;;;;;23.50;93.60;;;;;;5042015;28;20002;-63
2022/09/23 14:14:24;;;;;;;;;;;23.10;93.90;;;;;;5041299;28;19973;-66
2022/09/23 14:16:52;;;;;;;;;;;22.80;94.20;;;;;;5042663;28;19971;-62
2022/09/23 14:19:22;;;;;;;;;;;22.30;94.70;;;;;;5043412;28;19975;-61
2022/09/23 14:21:51;;;;;;;;;;;22.10;94.90;;;;;;5043167;28;19977;-61
2022/09/23 14:24:20;;;;;;;;;;;22.40;95.40;;;;;;5041677;28;20798;-62
2022/09/23 14:26:49;;;;;;;;;;;22.50;95.30;;;;;;5042605;28;19978;-61
2022/09/23 14:29:18;;;;;;;;;;;22.70;95.00;;;;;;5042687;28;20554;-64
2022/09/23 14:31:55;;;;;;;;;;;22.90;94.50;;;;;;5042689;28;19985;-63
2022/09/23 14:34:41;;;;;;;;;;;22.80;94.90;;;;;;5041495;28;19971;-64
2022/09/23 14:40:00;;;;;;;;;;;22.30;94.50;;;;;;5042965;28;20032;-62
2022/09/23 14:42:28;;;;;;;;;;;22.50;94.70;;;;;;5042789;28;19971;-65
2022/09/23 14:44:56;;;;;;;;;;;22.60;94.70;;;;;;5040959;28;19977;-62
2022/09/23 14:47:23;;;;;;;;;;;22.50;94.80;;;;;;5042944;28;19978;-63
2022/09/23 14:52:34;;;;;;;;;;;22.00;94.90;;;;;;5040777;28;19967;-64
2022/09/23 14:55:02;;;;;;;;;;;22.00;95.20;;;;;;5041938;28;19970;-64
2022/09/23 14:57:30;;;;;;;;;;;22.10;96.10;;;;;;5041868;28;20065;-63
2022/09/23 14:59:59;;;;;;;;;;;21.80;95.50;;;;;;5042533;28;19970;-62
2022/09/23 15:02:30;;;;;;;;;;;21.60;95.80;;;;;;5042831;28;20701;-62
2022/09/23 15:05:08;;;;;;;;;;;21.50;96.40;;;;;;5041242;28;20073;-64